sensor_id;sensor_type;location;lat;lon;timestamp;temperature;humidity
42099;DHT22;27758;55.900;8.516;2023-09-19T00:01:12;15.90;99.90
42099;DHT22;27758;55.900;8.516;2023-09-19T00:03:39;15.90;99.90
42099;DHT22;27758;55.900;8.516;2023-09-19T00:06:05;16.00;99.90
42099;DHT22;27758;55.900;8.516;2023-09-19T00:08:33;16.00;99.90
42099;DHT22;27758;55.900;8.516;2023-09-19T00:11:00;16.00;99.90
42099;DHT22;27758;55.900;8.516;2023-09-19T00:13:32;16.00;99.90
42099;DHT22;27758;55.900;8.516;2023-09-19T00:15:57;16.00;99.90
42099;DHT22;27758;55.900;8.516;2023-09-19T00:18:25;15.90;99.90
42099;DHT22;27758;55.900;8.516;2023-09-19T00:21:01;16.00;99.90
42099;DHT22;27758;55.900;8.516;2023-09-19T00:23:27;15.90;99.90
42099;DHT22;27758;55.900;8.516;2023-09-19T00:25:54;15.80;99.90
42099;DHT22;27758;55.900;8.516;2023-09-19T00:28:23;15.80;99.90
42099;DHT22;27758;55.900;8.516;2023-09-19T00:30:49;15.70;99.90
42099;DHT22;27758;55.900;8.516;2023-09-19T00:33:20;15.70;99.90
42099;DHT22;27758;55.900;8.516;2023-09-19T00:35:49;15.70;99.90
42099;DHT22;27758;55.900;8.516;2023-09-19T00:38:15;15.60;99.90
42099;DHT22;27758;55.900;8.516;2023-09-19T00:40:47;15.60;99.90
42099;DHT22;27758;55.900;8.516;2023-09-19T00:43:13;15.60;99.90
42099;DHT22;27758;55.900;8.516;2023-09-19T00:45:43;15.60;99.90
42099;DHT22;27758;55.900;8.516;2023-09-19T00:48:09;15.60;99.90
42099;DHT22;27758;55.900;8.516;2023-09-19T00:50:36;15.50;99.90
42099;DHT22;27758;55.900;8.516;2023-09-19T00:53:02;15.50;99.90
42099;DHT22;27758;55.900;8.516;2023-09-19T00:55:34;15.60;99.90
42099;DHT22;27758;55.900;8.516;2023-09-19T00:58:00;15.60;99.90
42099;DHT22;27758;55.900;8.516;2023-09-19T01:00:26;15.60;99.90
42099;DHT22;27758;55.900;8.516;2023-09-19T01:02:52;15.60;99.90
42099;DHT22;27758;55.900;8.516;2023-09-19T01:05:19;15.50;99.90
42099;DHT22;27758;55.900;8.516;2023-09-19T01:07:45;15.50;99.90
42099;DHT22;27758;55.900;8.516;2023-09-19T01:10:15;15.50;99.90
42099;DHT22;27758;55.900;8.516;2023-09-19T01:13:05;15.40;99.90
42099;DHT22;27758;55.900;8.516;2023-09-19T01:27:05;15.30;99.90
42099;DHT22;27758;55.900;8.516;2023-09-19T01:29:42;15.30;99.90
42099;DHT22;27758;55.900;8.516;2023-09-19T01:32:11;15.20;99.90
42099;DHT22;27758;55.900;8.516;2023-09-19T01:34:48;15.20;99.90
42099;DHT22;27758;55.900;8.516;2023-09-19T01:37:15;15.20;99.90
42099;DHT22;27758;55.900;8.516;2023-09-19T01:39:46;15.20;99.90
42099;DHT22;27758;55.900;8.516;2023-09-19T01:48:43;15.20;99.90
42099;DHT22;27758;55.900;8.516;2023-09-19T01:51:15;15.30;99.90
42099;DHT22;27758;55.900;8.516;2023-09-19T01:53:56;15.20;99.90
42099;DHT22;27758;55.900;8.516;2023-09-19T01:57:20;15.30;99.90
42099;DHT22;27758;55.900;8.516;2023-09-19T01:59:25;15.20;99.90
42099;DHT22;27758;55.900;8.516;2023-09-19T02:01:55;15.30;99.90
42099;DHT22;27758;55.900;8.516;2023-09-19T02:04:21;15.30;99.90
42099;DHT22;27758;55.900;8.516;2023-09-19T02:06:47;15.20;99.90
42099;DHT22;27758;55.900;8.516;2023-09-19T02:09:13;15.20;99.90
42099;DHT22;27758;55.900;8.516;2023-09-19T02:11:40;15.20;99.90
42099;DHT22;27758;55.900;8.516;2023-09-19T02:14:06;15.20;99.90
42099;DHT22;27758;55.900;8.516;2023-09-19T02:16:34;15.20;99.90
42099;DHT22;27758;55.900;8.516;2023-09-19T02:19:00;15.10;99.90
42099;DHT22;27758;55.900;8.516;2023-09-19T02:21:26;15.10;99.90
42099;DHT22;27758;55.900;8.516;2023-09-19T02:23:55;15.10;99.90
42099;DHT22;27758;55.900;8.516;2023-09-19T02:26:21;15.00;99.90
42099;DHT22;27758;55.900;8.516;2023-09-19T02:28:50;15.10;99.90
42099;DHT22;27758;55.900;8.516;2023-09-19T02:31:16;15.10;99.90
42099;DHT22;27758;55.900;8.516;2023-09-19T02:33:42;15.00;99.90
42099;DHT22;27758;55.900;8.516;2023-09-19T02:36:08;15.00;99.90
42099;DHT22;27758;55.900;8.516;2023-09-19T02:38:35;14.80;99.90
42099;DHT22;27758;55.900;8.516;2023-09-19T02:41:00;14.70;99.90
42099;DHT22;27758;55.900;8.516;2023-09-19T02:43:27;14.70;99.90
42099;DHT22;27758;55.900;8.516;2023-09-19T02:45:53;14.60;99.90
42099;DHT22;27758;55.900;8.516;2023-09-19T02:48:19;14.60;99.90
42099;DHT22;27758;55.900;8.516;2023-09-19T02:50:45;14.60;99.90
42099;DHT22;27758;55.900;8.516;2023-09-19T02:53:11;14.50;99.90
42099;DHT22;27758;55.900;8.516;2023-09-19T02:55:38;14.50;99.90
42099;DHT22;27758;55.900;8.516;2023-09-19T02:58:06;14.50;99.90
42099;DHT22;27758;55.900;8.516;2023-09-19T03:00:33;14.40;99.90
42099;DHT22;27758;55.900;8.516;2023-09-19T03:03:02;14.40;99.90
42099;DHT22;27758;55.900;8.516;2023-09-19T03:05:29;14.20;99.90
42099;DHT22;27758;55.900;8.516;2023-09-19T03:07:56;14.10;99.90
42099;DHT22;27758;55.900;8.516;2023-09-19T03:10:22;14.10;99.90
42099;DHT22;27758;55.900;8.516;2023-09-19T03:12:50;14.00;99.90
42099;DHT22;27758;55.900;8.516;2023-09-19T03:15:16;14.00;99.90
42099;DHT22;27758;55.900;8.516;2023-09-19T03:17:44;14.00;99.90
42099;DHT22;27758;55.900;8.516;2023-09-19T03:20:10;14.00;99.90
42099;DHT22;27758;55.900;8.516;2023-09-19T03:22:38;14.00;99.90
42099;DHT22;27758;55.900;8.516;2023-09-19T03:25:06;14.00;99.90
42099;DHT22;27758;55.900;8.516;2023-09-19T03:27:36;14.00;99.90
42099;DHT22;27758;55.900;8.516;2023-09-19T03:30:03;14.10;99.90
42099;DHT22;27758;55.900;8.516;2023-09-19T03:32:33;14.10;99.90
42099;DHT22;27758;55.900;8.516;2023-09-19T03:35:00;14.10;99.90
42099;DHT22;27758;55.900;8.516;2023-09-19T03:37:26;14.10;99.90
42099;DHT22;27758;55.900;8.516;2023-09-19T03:39:51;14.10;99.90
42099;DHT22;27758;55.900;8.516;2023-09-19T03:42:17;14.10;99.90
42099;DHT22;27758;55.900;8.516;2023-09-19T03:44:43;14.10;99.90
42099;DHT22;27758;55.900;8.516;2023-09-19T03:47:08;14.10;99.90
42099;DHT22;27758;55.900;8.516;2023-09-19T03:49:34;14.10;99.90
42099;DHT22;27758;55.900;8.516;2023-09-19T03:52:00;14.20;99.90
42099;DHT22;27758;55.900;8.516;2023-09-19T03:54:25;14.20;99.90
42099;DHT22;27758;55.900;8.516;2023-09-19T03:56:51;14.20;99.90
42099;DHT22;27758;55.900;8.516;2023-09-19T03:59:17;14.20;99.90
42099;DHT22;27758;55.900;8.516;2023-09-19T04:01:43;14.20;99.90
42099;DHT22;27758;55.900;8.516;2023-09-19T04:04:09;14.20;99.90
42099;DHT22;27758;55.900;8.516;2023-09-19T04:06:35;14.20;99.90
42099;DHT22;27758;55.900;8.516;2023-09-19T04:09:04;14.20;99.90
42099;DHT22;27758;55.900;8.516;2023-09-19T04:11:33;14.20;99.90
42099;DHT22;27758;55.900;8.516;2023-09-19T04:13:59;14.20;99.90
42099;DHT22;27758;55.900;8.516;2023-09-19T04:16:25;14.20;99.90
42099;DHT22;27758;55.900;8.516;2023-09-19T04:18:50;14.20;99.90
42099;DHT22;27758;55.900;8.516;2023-09-19T04:21:16;14.20;99.90
42099;DHT22;27758;55.900;8.516;2023-09-19T04:23:42;14.20;99.90
42099;DHT22;27758;55.900;8.516;2023-09-19T04:26:08;14.20;99.90
42099;DHT22;27758;55.900;8.516;2023-09-19T04:28:34;13.70;99.90
42099;DHT22;27758;55.900;8.516;2023-09-19T04:31:00;13.50;99.90
42099;DHT22;27758;55.900;8.516;2023-09-19T04:33:26;13.20;99.90
42099;DHT22;27758;55.900;8.516;2023-09-19T04:35:55;13.10;99.90
42099;DHT22;27758;55.900;8.516;2023-09-19T04:38:21;13.00;99.90
42099;DHT22;27758;55.900;8.516;2023-09-19T04:40:47;12.90;99.90
42099;DHT22;27758;55.900;8.516;2023-09-19T04:43:13;12.90;99.90
42099;DHT22;27758;55.900;8.516;2023-09-19T04:45:39;12.90;99.90
42099;DHT22;27758;55.900;8.516;2023-09-19T04:48:06;12.90;99.90
42099;DHT22;27758;55.900;8.516;2023-09-19T04:50:35;13.00;99.90
42099;DHT22;27758;55.900;8.516;2023-09-19T04:53:00;13.00;99.90
42099;DHT22;27758;55.900;8.516;2023-09-19T04:55:26;13.00;99.90
42099;DHT22;27758;55.900;8.516;2023-09-19T04:57:53;13.00;99.90
42099;DHT22;27758;55.900;8.516;2023-09-19T05:00:23;13.10;99.90
42099;DHT22;27758;55.900;8.516;2023-09-19T05:02:55;13.00;99.90
42099;DHT22;27758;55.900;8.516;2023-09-19T05:05:22;13.00;99.90
42099;DHT22;27758;55.900;8.516;2023-09-19T05:07:49;13.10;99.90
42099;DHT22;27758;55.900;8.516;2023-09-19T05:10:15;13.10;99.90
42099;DHT22;27758;55.900;8.516;2023-09-19T05:12:41;13.20;99.90
42099;DHT22;27758;55.900;8.516;2023-09-19T05:15:09;13.10;99.90
42099;DHT22;27758;55.900;8.516;2023-09-19T05:17:35;13.10;99.90
42099;DHT22;27758;55.900;8.516;2023-09-19T05:20:01;13.10;99.90
42099;DHT22;27758;55.900;8.516;2023-09-19T05:22:41;13.00;99.90
42099;DHT22;27758;55.900;8.516;2023-09-19T05:25:11;13.00;99.90
42099;DHT22;27758;55.900;8.516;2023-09-19T05:27:38;13.00;99.90
42099;DHT22;27758;55.900;8.516;2023-09-19T05:30:04;13.00;99.90
42099;DHT22;27758;55.900;8.516;2023-09-19T05:32:30;13.00;99.90
42099;DHT22;27758;55.900;8.516;2023-09-19T05:34:56;13.00;99.90
42099;DHT22;27758;55.900;8.516;2023-09-19T05:37:22;12.90;99.90
42099;DHT22;27758;55.900;8.516;2023-09-19T05:39:49;12.90;99.90
42099;DHT22;27758;55.900;8.516;2023-09-19T05:42:14;12.90;99.90
42099;DHT22;27758;55.900;8.516;2023-09-19T05:44:40;12.90;99.90
42099;DHT22;27758;55.900;8.516;2023-09-19T05:47:06;12.90;99.90
42099;DHT22;27758;55.900;8.516;2023-09-19T05:49:35;12.90;99.90
42099;DHT22;27758;55.900;8.516;2023-09-19T05:52:05;13.00;99.90
42099;DHT22;27758;55.900;8.516;2023-09-19T05:54:31;12.90;99.90
42099;DHT22;27758;55.900;8.516;2023-09-19T05:56:56;12.90;99.90
42099;DHT22;27758;55.900;8.516;2023-09-19T05:59:23;12.90;99.90
42099;DHT22;27758;55.900;8.516;2023-09-19T06:01:49;12.90;99.90
42099;DHT22;27758;55.900;8.516;2023-09-19T06:04:15;12.80;99.90
42099;DHT22;27758;55.900;8.516;2023-09-19T06:06:40;12.80;99.90
42099;DHT22;27758;55.900;8.516;2023-09-19T06:09:07;12.80;99.90
42099;DHT22;27758;55.900;8.516;2023-09-19T06:11:35;12.80;99.90
42099;DHT22;27758;55.900;8.516;2023-09-19T06:14:02;12.70;99.90
42099;DHT22;27758;55.900;8.516;2023-09-19T06:16:30;12.80;99.90
42099;DHT22;27758;55.900;8.516;2023-09-19T06:18:59;12.90;99.90
42099;DHT22;27758;55.900;8.516;2023-09-19T06:21:26;13.00;99.90
42099;DHT22;27758;55.900;8.516;2023-09-19T06:23:55;13.20;99.90
42099;DHT22;27758;55.900;8.516;2023-09-19T06:26:23;13.30;99.90
42099;DHT22;27758;55.900;8.516;2023-09-19T06:28:49;13.60;99.90
42099;DHT22;27758;55.900;8.516;2023-09-19T06:31:14;13.80;99.90
42099;DHT22;27758;55.900;8.516;2023-09-19T06:33:40;13.90;99.90
42099;DHT22;27758;55.900;8.516;2023-09-19T06:36:06;14.00;99.90
42099;DHT22;27758;55.900;8.516;2023-09-19T06:38:32;14.00;99.90
42099;DHT22;27758;55.900;8.516;2023-09-19T06:41:02;14.00;99.90
42099;DHT22;27758;55.900;8.516;2023-09-19T06:43:31;14.00;99.90
42099;DHT22;27758;55.900;8.516;2023-09-19T06:45:57;14.00;99.90
42099;DHT22;27758;55.900;8.516;2023-09-19T06:48:23;14.10;99.90
42099;DHT22;27758;55.900;8.516;2023-09-19T06:50:50;14.20;99.90
42099;DHT22;27758;55.900;8.516;2023-09-19T06:53:18;14.40;99.90
42099;DHT22;27758;55.900;8.516;2023-09-19T06:55:44;14.40;99.90
42099;DHT22;27758;55.900;8.516;2023-09-19T06:58:10;14.30;99.90
42099;DHT22;27758;55.900;8.516;2023-09-19T07:00:36;14.20;99.90
42099;DHT22;27758;55.900;8.516;2023-09-19T07:03:07;14.10;99.90
42099;DHT22;27758;55.900;8.516;2023-09-19T07:05:44;14.10;99.90
42099;DHT22;27758;55.900;8.516;2023-09-19T07:08:10;14.10;99.90
42099;DHT22;27758;55.900;8.516;2023-09-19T07:10:38;14.10;99.90
42099;DHT22;27758;55.900;8.516;2023-09-19T07:13:07;14.20;99.90
42099;DHT22;27758;55.900;8.516;2023-09-19T07:15:37;14.30;99.90
42099;DHT22;27758;55.900;8.516;2023-09-19T07:18:06;14.40;99.90
42099;DHT22;27758;55.900;8.516;2023-09-19T07:20:32;14.70;99.90
42099;DHT22;27758;55.900;8.516;2023-09-19T07:23:00;15.10;99.90
42099;DHT22;27758;55.900;8.516;2023-09-19T07:25:26;15.30;99.90
42099;DHT22;27758;55.900;8.516;2023-09-19T07:27:52;15.60;99.90
42099;DHT22;27758;55.900;8.516;2023-09-19T07:30:20;15.90;99.90
42099;DHT22;27758;55.900;8.516;2023-09-19T07:32:45;15.90;99.90
42099;DHT22;27758;55.900;8.516;2023-09-19T07:35:11;16.30;99.90
42099;DHT22;27758;55.900;8.516;2023-09-19T07:37:37;16.50;99.90
42099;DHT22;27758;55.900;8.516;2023-09-19T07:40:03;16.80;99.90
42099;DHT22;27758;55.900;8.516;2023-09-19T07:42:36;16.80;99.90
42099;DHT22;27758;55.900;8.516;2023-09-19T07:45:05;16.90;99.90
42099;DHT22;27758;55.900;8.516;2023-09-19T07:47:30;16.60;99.90
42099;DHT22;27758;55.900;8.516;2023-09-19T07:49:58;16.10;99.90
42099;DHT22;27758;55.900;8.516;2023-09-19T07:52:25;16.20;99.90
42099;DHT22;27758;55.900;8.516;2023-09-19T07:54:53;16.30;99.90
42099;DHT22;27758;55.900;8.516;2023-09-19T07:57:19;16.40;99.90
42099;DHT22;27758;55.900;8.516;2023-09-19T07:59:45;16.70;99.90
42099;DHT22;27758;55.900;8.516;2023-09-19T08:02:11;17.00;99.90
42099;DHT22;27758;55.900;8.516;2023-09-19T08:04:45;17.40;99.90
42099;DHT22;27758;55.900;8.516;2023-09-19T08:07:12;17.50;99.90
42099;DHT22;27758;55.900;8.516;2023-09-19T08:09:41;17.40;99.90
42099;DHT22;27758;55.900;8.516;2023-09-19T08:12:07;17.10;99.90
42099;DHT22;27758;55.900;8.516;2023-09-19T08:14:36;17.20;99.90
42099;DHT22;27758;55.900;8.516;2023-09-19T08:17:03;17.30;99.90
42099;DHT22;27758;55.900;8.516;2023-09-19T08:19:31;17.30;99.90
42099;DHT22;27758;55.900;8.516;2023-09-19T08:22:00;17.30;99.90
42099;DHT22;27758;55.900;8.516;2023-09-19T08:24:29;17.40;99.90
42099;DHT22;27758;55.900;8.516;2023-09-19T08:26:56;17.20;99.90
42099;DHT22;27758;55.900;8.516;2023-09-19T08:29:23;17.00;99.90
42099;DHT22;27758;55.900;8.516;2023-09-19T08:31:56;16.70;99.90
42099;DHT22;27758;55.900;8.516;2023-09-19T08:34:23;16.60;99.90
42099;DHT22;27758;55.900;8.516;2023-09-19T08:36:55;16.70;99.90
42099;DHT22;27758;55.900;8.516;2023-09-19T08:39:24;16.90;99.90
42099;DHT22;27758;55.900;8.516;2023-09-19T08:42:00;17.20;99.90
42099;DHT22;27758;55.900;8.516;2023-09-19T08:44:27;17.50;99.90
42099;DHT22;27758;55.900;8.516;2023-09-19T08:47:01;17.70;99.90
42099;DHT22;27758;55.900;8.516;2023-09-19T08:49:41;18.10;99.90
42099;DHT22;27758;55.900;8.516;2023-09-19T08:52:32;18.30;99.90
42099;DHT22;27758;55.900;8.516;2023-09-19T08:55:02;18.60;99.90
42099;DHT22;27758;55.900;8.516;2023-09-19T08:57:36;19.00;99.90
42099;DHT22;27758;55.900;8.516;2023-09-19T09:00:04;19.20;99.90
42099;DHT22;27758;55.900;8.516;2023-09-19T09:02:38;19.30;99.90
42099;DHT22;27758;55.900;8.516;2023-09-19T09:05:09;19.30;99.90
42099;DHT22;27758;55.900;8.516;2023-09-19T09:07:43;19.20;99.90
42099;DHT22;27758;55.900;8.516;2023-09-19T09:10:09;19.10;99.90
42099;DHT22;27758;55.900;8.516;2023-09-19T09:12:35;19.30;99.90
42099;DHT22;27758;55.900;8.516;2023-09-19T09:15:06;19.50;99.90
42099;DHT22;27758;55.900;8.516;2023-09-19T09:17:34;19.40;99.90
42099;DHT22;27758;55.900;8.516;2023-09-19T09:20:00;19.30;99.90
42099;DHT22;27758;55.900;8.516;2023-09-19T09:22:25;19.40;99.90
42099;DHT22;27758;55.900;8.516;2023-09-19T09:24:59;19.70;99.90
42099;DHT22;27758;55.900;8.516;2023-09-19T09:27:30;19.70;99.90
42099;DHT22;27758;55.900;8.516;2023-09-19T09:29:57;19.90;99.90
42099;DHT22;27758;55.900;8.516;2023-09-19T09:32:30;20.00;99.90
42099;DHT22;27758;55.900;8.516;2023-09-19T09:35:00;20.00;99.90
42099;DHT22;27758;55.900;8.516;2023-09-19T09:37:27;19.90;99.90
42099;DHT22;27758;55.900;8.516;2023-09-19T09:40:01;19.70;99.90
42099;DHT22;27758;55.900;8.516;2023-09-19T09:42:42;19.30;99.90
42099;DHT22;27758;55.900;8.516;2023-09-19T09:45:12;19.30;99.90
42099;DHT22;27758;55.900;8.516;2023-09-19T09:47:49;19.20;99.90
42099;DHT22;27758;55.900;8.516;2023-09-19T09:50:28;19.20;99.90
42099;DHT22;27758;55.900;8.516;2023-09-19T09:53:01;19.00;99.90
42099;DHT22;27758;55.900;8.516;2023-09-19T09:56:04;18.80;99.90
42099;DHT22;27758;55.900;8.516;2023-09-19T09:58:34;18.60;99.90
42099;DHT22;27758;55.900;8.516;2023-09-19T10:01:01;18.20;99.90
42099;DHT22;27758;55.900;8.516;2023-09-19T10:03:35;17.90;99.90
42099;DHT22;27758;55.900;8.516;2023-09-19T10:06:06;17.70;99.90
42099;DHT22;27758;55.900;8.516;2023-09-19T10:09:17;17.50;99.90
42099;DHT22;27758;55.900;8.516;2023-09-19T10:12:03;17.20;99.90
42099;DHT22;27758;55.900;8.516;2023-09-19T10:14:30;16.90;99.90
42099;DHT22;27758;55.900;8.516;2023-09-19T10:17:02;16.80;99.90
42099;DHT22;27758;55.900;8.516;2023-09-19T10:19:46;16.90;99.90
42099;DHT22;27758;55.900;8.516;2023-09-19T10:22:19;16.90;99.90
42099;DHT22;27758;55.900;8.516;2023-09-19T10:24:48;17.00;99.90
42099;DHT22;27758;55.900;8.516;2023-09-19T10:27:15;17.20;99.90
42099;DHT22;27758;55.900;8.516;2023-09-19T10:29:43;17.30;99.90
42099;DHT22;27758;55.900;8.516;2023-09-19T10:32:11;17.50;99.90
42099;DHT22;27758;55.900;8.516;2023-09-19T10:34:46;17.50;99.90
42099;DHT22;27758;55.900;8.516;2023-09-19T10:37:12;17.50;99.90
42099;DHT22;27758;55.900;8.516;2023-09-19T10:39:39;17.40;99.90
42099;DHT22;27758;55.900;8.516;2023-09-19T10:42:06;17.50;99.90
42099;DHT22;27758;55.900;8.516;2023-09-19T10:44:37;17.30;99.90
42099;DHT22;27758;55.900;8.516;2023-09-19T10:47:08;17.10;99.90
42099;DHT22;27758;55.900;8.516;2023-09-19T10:49:34;16.90;99.90
42099;DHT22;27758;55.900;8.516;2023-09-19T10:52:01;16.80;99.90
42099;DHT22;27758;55.900;8.516;2023-09-19T10:54:31;16.50;99.90
42099;DHT22;27758;55.900;8.516;2023-09-19T10:57:02;16.20;99.90
42099;DHT22;27758;55.900;8.516;2023-09-19T10:59:30;16.10;99.90
42099;DHT22;27758;55.900;8.516;2023-09-19T11:02:16;16.00;99.90
42099;DHT22;27758;55.900;8.516;2023-09-19T11:04:43;16.00;99.90
42099;DHT22;27758;55.900;8.516;2023-09-19T11:07:14;15.90;99.90
42099;DHT22;27758;55.900;8.516;2023-09-19T11:09:50;15.80;99.90
42099;DHT22;27758;55.900;8.516;2023-09-19T11:15:01;16.00;99.90
42099;DHT22;27758;55.900;8.516;2023-09-19T11:17:39;15.90;99.90
42099;DHT22;27758;55.900;8.516;2023-09-19T11:30:47;16.30;99.90
42099;DHT22;27758;55.900;8.516;2023-09-19T11:36:13;16.10;99.90
42099;DHT22;27758;55.900;8.516;2023-09-19T11:44:31;15.80;99.90
42099;DHT22;27758;55.900;8.516;2023-09-19T11:46:56;15.80;99.90
42099;DHT22;27758;55.900;8.516;2023-09-19T11:49:28;15.90;99.90
42099;DHT22;27758;55.900;8.516;2023-09-19T11:51:59;15.90;99.90
42099;DHT22;27758;55.900;8.516;2023-09-19T11:54:27;15.90;99.90
42099;DHT22;27758;55.900;8.516;2023-09-19T11:56:57;15.80;99.90
42099;DHT22;27758;55.900;8.516;2023-09-19T11:59:24;15.70;99.90
42099;DHT22;27758;55.900;8.516;2023-09-19T12:01:59;15.50;99.90
42099;DHT22;27758;55.900;8.516;2023-09-19T12:04:43;15.50;99.90
42099;DHT22;27758;55.900;8.516;2023-09-19T12:07:10;15.40;99.90
42099;DHT22;27758;55.900;8.516;2023-09-19T12:09:47;15.30;99.90
42099;DHT22;27758;55.900;8.516;2023-09-19T12:12:24;15.20;99.90
42099;DHT22;27758;55.900;8.516;2023-09-19T12:14:53;15.20;99.90
42099;DHT22;27758;55.900;8.516;2023-09-19T12:17:20;15.20;99.90
42099;DHT22;27758;55.900;8.516;2023-09-19T12:19:56;15.10;99.90
42099;DHT22;27758;55.900;8.516;2023-09-19T12:22:22;15.10;99.90
42099;DHT22;27758;55.900;8.516;2023-09-19T12:24:48;15.00;99.90
42099;DHT22;27758;55.900;8.516;2023-09-19T12:27:16;14.90;99.90
42099;DHT22;27758;55.900;8.516;2023-09-19T12:29:49;14.90;99.90
42099;DHT22;27758;55.900;8.516;2023-09-19T12:32:15;14.90;99.90
42099;DHT22;27758;55.900;8.516;2023-09-19T12:34:49;14.90;99.90
42099;DHT22;27758;55.900;8.516;2023-09-19T12:37:16;15.00;99.90
42099;DHT22;27758;55.900;8.516;2023-09-19T12:39:53;14.90;99.90
42099;DHT22;27758;55.900;8.516;2023-09-19T12:42:26;15.00;99.90
42099;DHT22;27758;55.900;8.516;2023-09-19T12:44:58;15.00;99.90
42099;DHT22;27758;55.900;8.516;2023-09-19T12:47:27;14.90;99.90
42099;DHT22;27758;55.900;8.516;2023-09-19T12:50:12;14.90;99.90
42099;DHT22;27758;55.900;8.516;2023-09-19T12:52:40;14.90;99.90
42099;DHT22;27758;55.900;8.516;2023-09-19T12:55:06;14.90;99.90
42099;DHT22;27758;55.900;8.516;2023-09-19T12:57:34;14.80;99.90
42099;DHT22;27758;55.900;8.516;2023-09-19T13:00:03;14.70;99.90
42099;DHT22;27758;55.900;8.516;2023-09-19T13:02:33;14.70;99.90
42099;DHT22;27758;55.900;8.516;2023-09-19T13:04:58;14.60;99.90
42099;DHT22;27758;55.900;8.516;2023-09-19T13:07:43;14.60;99.90
42099;DHT22;27758;55.900;8.516;2023-09-19T13:10:13;14.60;99.90
42099;DHT22;27758;55.900;8.516;2023-09-19T13:12:43;14.50;99.90
42099;DHT22;27758;55.900;8.516;2023-09-19T13:15:13;14.40;99.90
42099;DHT22;27758;55.900;8.516;2023-09-19T13:17:46;14.30;99.90
42099;DHT22;27758;55.900;8.516;2023-09-19T13:20:27;14.20;99.90
42099;DHT22;27758;55.900;8.516;2023-09-19T13:22:57;14.10;99.90
42099;DHT22;27758;55.900;8.516;2023-09-19T13:25:34;14.10;99.90
42099;DHT22;27758;55.900;8.516;2023-09-19T13:28:00;14.00;99.90
42099;DHT22;27758;55.900;8.516;2023-09-19T13:30:30;13.90;99.90
42099;DHT22;27758;55.900;8.516;2023-09-19T13:33:08;14.00;99.90
42099;DHT22;27758;55.900;8.516;2023-09-19T13:35:35;13.90;99.90
42099;DHT22;27758;55.900;8.516;2023-09-19T13:38:03;13.90;99.90
42099;DHT22;27758;55.900;8.516;2023-09-19T13:40:28;13.90;99.90
42099;DHT22;27758;55.900;8.516;2023-09-19T13:42:57;13.80;99.90
42099;DHT22;27758;55.900;8.516;2023-09-19T13:45:22;13.70;99.90
42099;DHT22;27758;55.900;8.516;2023-09-19T13:47:50;13.70;99.90
42099;DHT22;27758;55.900;8.516;2023-09-19T13:50:16;13.60;99.90
42099;DHT22;27758;55.900;8.516;2023-09-19T13:52:42;13.50;99.90
42099;DHT22;27758;55.900;8.516;2023-09-19T13:55:08;13.50;99.90
42099;DHT22;27758;55.900;8.516;2023-09-19T13:57:34;13.50;99.90
42099;DHT22;27758;55.900;8.516;2023-09-19T13:59:59;13.40;99.90
42099;DHT22;27758;55.900;8.516;2023-09-19T14:02:25;13.50;99.90
42099;DHT22;27758;55.900;8.516;2023-09-19T14:04:54;13.50;99.90
42099;DHT22;27758;55.900;8.516;2023-09-19T14:07:21;13.50;99.90
42099;DHT22;27758;55.900;8.516;2023-09-19T14:09:47;13.50;99.90
42099;DHT22;27758;55.900;8.516;2023-09-19T14:12:13;13.50;99.90
42099;DHT22;27758;55.900;8.516;2023-09-19T14:14:39;13.60;99.90
42099;DHT22;27758;55.900;8.516;2023-09-19T14:17:05;13.60;99.90
42099;DHT22;27758;55.900;8.516;2023-09-19T14:19:32;13.70;99.90
42099;DHT22;27758;55.900;8.516;2023-09-19T14:21:58;13.70;99.90
42099;DHT22;27758;55.900;8.516;2023-09-19T14:24:25;13.80;99.90
42099;DHT22;27758;55.900;8.516;2023-09-19T14:26:51;13.90;99.90
42099;DHT22;27758;55.900;8.516;2023-09-19T14:29:17;13.90;99.90
42099;DHT22;27758;55.900;8.516;2023-09-19T14:31:43;14.00;99.90
42099;DHT22;27758;55.900;8.516;2023-09-19T14:34:09;14.00;99.90
42099;DHT22;27758;55.900;8.516;2023-09-19T14:36:38;14.10;99.90
42099;DHT22;27758;55.900;8.516;2023-09-19T14:39:07;14.10;99.90
42099;DHT22;27758;55.900;8.516;2023-09-19T14:41:34;14.20;99.90
42099;DHT22;27758;55.900;8.516;2023-09-19T14:44:01;14.30;99.90
42099;DHT22;27758;55.900;8.516;2023-09-19T14:46:27;14.40;99.90
42099;DHT22;27758;55.900;8.516;2023-09-19T14:48:54;14.50;99.90
42099;DHT22;27758;55.900;8.516;2023-09-19T14:51:24;14.60;99.90
42099;DHT22;27758;55.900;8.516;2023-09-19T14:53:50;14.70;99.90
42099;DHT22;27758;55.900;8.516;2023-09-19T14:56:16;14.80;99.90
42099;DHT22;27758;55.900;8.516;2023-09-19T14:58:44;14.90;99.90
42099;DHT22;27758;55.900;8.516;2023-09-19T15:01:11;15.00;99.90
42099;DHT22;27758;55.900;8.516;2023-09-19T15:03:39;15.00;99.90
42099;DHT22;27758;55.900;8.516;2023-09-19T15:06:09;15.10;99.90
42099;DHT22;27758;55.900;8.516;2023-09-19T15:08:37;15.20;99.90
42099;DHT22;27758;55.900;8.516;2023-09-19T15:11:07;15.30;99.90
42099;DHT22;27758;55.900;8.516;2023-09-19T15:13:36;15.30;99.90
42099;DHT22;27758;55.900;8.516;2023-09-19T15:16:03;15.40;99.90
42099;DHT22;27758;55.900;8.516;2023-09-19T15:18:29;15.50;99.90
42099;DHT22;27758;55.900;8.516;2023-09-19T15:21:05;15.60;99.90
42099;DHT22;27758;55.900;8.516;2023-09-19T15:23:32;15.70;99.90
42099;DHT22;27758;55.900;8.516;2023-09-19T15:26:00;15.80;99.90
42099;DHT22;27758;55.900;8.516;2023-09-19T15:28:27;15.80;99.90
42099;DHT22;27758;55.900;8.516;2023-09-19T15:31:01;15.90;99.90
42099;DHT22;27758;55.900;8.516;2023-09-19T15:33:27;16.00;99.90
42099;DHT22;27758;55.900;8.516;2023-09-19T15:36:15;16.00;99.90
42099;DHT22;27758;55.900;8.516;2023-09-19T15:41:19;16.20;99.90
42099;DHT22;27758;55.900;8.516;2023-09-19T15:43:46;16.20;99.90
42099;DHT22;27758;55.900;8.516;2023-09-19T15:46:12;16.20;99.90
42099;DHT22;27758;55.900;8.516;2023-09-19T15:48:39;16.20;99.90
42099;DHT22;27758;55.900;8.516;2023-09-19T15:51:04;16.30;99.90
42099;DHT22;27758;55.900;8.516;2023-09-19T15:53:50;16.30;99.90
42099;DHT22;27758;55.900;8.516;2023-09-19T15:56:16;16.30;99.90
42099;DHT22;27758;55.900;8.516;2023-09-19T15:58:46;16.30;99.90
42099;DHT22;27758;55.900;8.516;2023-09-19T16:01:12;16.40;99.90
42099;DHT22;27758;55.900;8.516;2023-09-19T16:03:39;16.40;99.90
42099;DHT22;27758;55.900;8.516;2023-09-19T16:06:11;16.40;99.90
42099;DHT22;27758;55.900;8.516;2023-09-19T16:08:45;16.40;99.90
42099;DHT22;27758;55.900;8.516;2023-09-19T16:11:11;16.50;99.90
42099;DHT22;27758;55.900;8.516;2023-09-19T16:13:38;16.50;99.90
42099;DHT22;27758;55.900;8.516;2023-09-19T16:16:04;16.50;99.90
42099;DHT22;27758;55.900;8.516;2023-09-19T16:18:30;16.50;99.90
42099;DHT22;27758;55.900;8.516;2023-09-19T16:21:02;16.50;99.90
42099;DHT22;27758;55.900;8.516;2023-09-19T16:23:29;16.60;99.90